sensor_id;sensor_type;location;lat;lon;timestamp;P1;durP1;ratioP1;P2;durP2;ratioP2
38715;SDS011;24833;49.324;8.694;2022-07-23T00:00:27;4.82;;;4.40;;
38715;SDS011;24833;49.324;8.694;2022-07-23T00:03:03;4.40;;;3.92;;
38715;SDS011;24833;49.324;8.694;2022-07-23T00:05:30;6.32;;;3.60;;
38715;SDS011;24833;49.324;8.694;2022-07-23T00:08:00;4.90;;;4.43;;
38715;SDS011;24833;49.324;8.694;2022-07-23T00:10:27;6.70;;;4.38;;
38715;SDS011;24833;49.324;8.694;2022-07-23T00:12:54;7.75;;;4.78;;
38715;SDS011;24833;49.324;8.694;2022-07-23T00:15:22;5.45;;;3.95;;
38715;SDS011;24833;49.324;8.694;2022-07-23T00:17:49;4.68;;;3.97;;
38715;SDS011;24833;49.324;8.694;2022-07-23T00:20:17;4.57;;;4.13;;
38715;SDS011;24833;49.324;8.694;2022-07-23T00:22:51;4.55;;;4.15;;
38715;SDS011;24833;49.324;8.694;2022-07-23T00:25:21;5.43;;;4.45;;
38715;SDS011;24833;49.324;8.694;2022-07-23T00:27:56;4.78;;;4.38;;
38715;SDS011;24833;49.324;8.694;2022-07-23T00:30:25;6.40;;;4.90;;
38715;SDS011;24833;49.324;8.694;2022-07-23T00:32:54;6.00;;;4.65;;
38715;SDS011;24833;49.324;8.694;2022-07-23T00:35:28;7.43;;;4.30;;
38715;SDS011;24833;49.324;8.694;2022-07-23T00:37:58;5.85;;;4.47;;
38715;SDS011;24833;49.324;8.694;2022-07-23T00:40:26;5.90;;;4.85;;
38715;SDS011;24833;49.324;8.694;2022-07-23T00:42:55;6.13;;;4.63;;
38715;SDS011;24833;49.324;8.694;2022-07-23T00:45:22;8.40;;;4.65;;
38715;SDS011;24833;49.324;8.694;2022-07-23T00:47:49;4.50;;;4.03;;
38715;SDS011;24833;49.324;8.694;2022-07-23T00:50:16;4.80;;;4.22;;
38715;SDS011;24833;49.324;8.694;2022-07-23T00:52:43;3.80;;;3.45;;
38715;SDS011;24833;49.324;8.694;2022-07-23T00:55:11;5.07;;;4.40;;
38715;SDS011;24833;49.324;8.694;2022-07-23T00:57:39;4.53;;;4.07;;
38715;SDS011;24833;49.324;8.694;2022-07-23T01:00:09;5.30;;;4.47;;
38715;SDS011;24833;49.324;8.694;2022-07-23T01:02:40;4.18;;;3.78;;
38715;SDS011;24833;49.324;8.694;2022-07-23T01:05:07;6.03;;;4.57;;
38715;SDS011;24833;49.324;8.694;2022-07-23T01:07:36;5.53;;;4.88;;
38715;SDS011;24833;49.324;8.694;2022-07-23T01:10:04;4.85;;;4.35;;
38715;SDS011;24833;49.324;8.694;2022-07-23T01:12:53;5.97;;;4.30;;
38715;SDS011;24833;49.324;8.694;2022-07-23T01:15:21;6.53;;;4.55;;
38715;SDS011;24833;49.324;8.694;2022-07-23T01:17:48;5.30;;;4.07;;
38715;SDS011;24833;49.324;8.694;2022-07-23T01:20:15;5.20;;;4.45;;
38715;SDS011;24833;49.324;8.694;2022-07-23T01:22:43;5.70;;;5.10;;
38715;SDS011;24833;49.324;8.694;2022-07-23T01:25:11;5.82;;;4.75;;
38715;SDS011;24833;49.324;8.694;2022-07-23T01:27:43;6.05;;;4.38;;
38715;SDS011;24833;49.324;8.694;2022-07-23T01:30:10;4.85;;;4.28;;
38715;SDS011;24833;49.324;8.694;2022-07-23T01:32:39;6.05;;;5.00;;
38715;SDS011;24833;49.324;8.694;2022-07-23T01:35:06;5.18;;;4.68;;
38715;SDS011;24833;49.324;8.694;2022-07-23T01:37:35;5.03;;;4.53;;
38715;SDS011;24833;49.324;8.694;2022-07-23T01:40:04;5.90;;;4.53;;
38715;SDS011;24833;49.324;8.694;2022-07-23T01:42:33;7.68;;;4.53;;
38715;SDS011;24833;49.324;8.694;2022-07-23T01:45:02;5.13;;;4.43;;
38715;SDS011;24833;49.324;8.694;2022-07-23T01:47:31;7.32;;;4.43;;
38715;SDS011;24833;49.324;8.694;2022-07-23T01:49:58;4.18;;;3.72;;
38715;SDS011;24833;49.324;8.694;2022-07-23T01:52:48;5.32;;;3.95;;
38715;SDS011;24833;49.324;8.694;2022-07-23T01:55:15;3.85;;;3.55;;
38715;SDS011;24833;49.324;8.694;2022-07-23T01:57:46;5.30;;;3.95;;
38715;SDS011;24833;49.324;8.694;2022-07-23T02:00:17;8.65;;;4.18;;
38715;SDS011;24833;49.324;8.694;2022-07-23T02:02:47;6.03;;;4.25;;
38715;SDS011;24833;49.324;8.694;2022-07-23T02:05:14;10.70;;;4.97;;
38715;SDS011;24833;49.324;8.694;2022-07-23T02:07:41;5.05;;;4.03;;
38715;SDS011;24833;49.324;8.694;2022-07-23T02:10:08;5.70;;;4.10;;
38715;SDS011;24833;49.324;8.694;2022-07-23T02:12:36;7.07;;;4.22;;
38715;SDS011;24833;49.324;8.694;2022-07-23T02:15:04;12.00;;;4.43;;
38715;SDS011;24833;49.324;8.694;2022-07-23T02:17:35;7.18;;;4.15;;
38715;SDS011;24833;49.324;8.694;2022-07-23T02:20:02;7.43;;;3.88;;
38715;SDS011;24833;49.324;8.694;2022-07-23T02:22:31;8.93;;;4.30;;
38715;SDS011;24833;49.324;8.694;2022-07-23T02:24:58;4.55;;;4.00;;
38715;SDS011;24833;49.324;8.694;2022-07-23T02:27:25;5.68;;;4.50;;
38715;SDS011;24833;49.324;8.694;2022-07-23T02:29:52;6.68;;;4.32;;
38715;SDS011;24833;49.324;8.694;2022-07-23T02:32:19;4.13;;;3.78;;
38715;SDS011;24833;49.324;8.694;2022-07-23T02:34:47;5.32;;;4.47;;
38715;SDS011;24833;49.324;8.694;2022-07-23T02:37:16;4.30;;;3.85;;
38715;SDS011;24833;49.324;8.694;2022-07-23T02:39:43;4.68;;;4.28;;
38715;SDS011;24833;49.324;8.694;2022-07-23T02:42:11;5.05;;;3.55;;
38715;SDS011;24833;49.324;8.694;2022-07-23T02:44:39;4.18;;;3.78;;
38715;SDS011;24833;49.324;8.694;2022-07-23T02:47:07;5.95;;;3.47;;
38715;SDS011;24833;49.324;8.694;2022-07-23T02:49:34;4.38;;;3.88;;
38715;SDS011;24833;49.324;8.694;2022-07-23T02:52:03;3.93;;;3.57;;
38715;SDS011;24833;49.324;8.694;2022-07-23T02:54:31;5.07;;;3.40;;
38715;SDS011;24833;49.324;8.694;2022-07-23T02:56:58;5.50;;;3.55;;
38715;SDS011;24833;49.324;8.694;2022-07-23T02:59:25;5.05;;;3.65;;
38715;SDS011;24833;49.324;8.694;2022-07-23T03:01:52;3.88;;;3.47;;
38715;SDS011;24833;49.324;8.694;2022-07-23T03:04:19;5.13;;;3.80;;
38715;SDS011;24833;49.324;8.694;2022-07-23T03:06:47;5.25;;;3.80;;
38715;SDS011;24833;49.324;8.694;2022-07-23T03:09:14;4.07;;;3.75;;
38715;SDS011;24833;49.324;8.694;2022-07-23T03:11:41;4.25;;;3.42;;
38715;SDS011;24833;49.324;8.694;2022-07-23T03:14:08;4.72;;;3.72;;
38715;SDS011;24833;49.324;8.694;2022-07-23T03:16:35;4.53;;;4.05;;
38715;SDS011;24833;49.324;8.694;2022-07-23T03:19:03;4.25;;;3.85;;
38715;SDS011;24833;49.324;8.694;2022-07-23T03:21:32;3.50;;;3.10;;
38715;SDS011;24833;49.324;8.694;2022-07-23T03:24:00;3.67;;;3.28;;
38715;SDS011;24833;49.324;8.694;2022-07-23T03:26:28;4.63;;;3.58;;
38715;SDS011;24833;49.324;8.694;2022-07-23T03:28:55;3.83;;;3.35;;
38715;SDS011;24833;49.324;8.694;2022-07-23T03:31:23;4.35;;;3.25;;
38715;SDS011;24833;49.324;8.694;2022-07-23T03:33:51;3.53;;;3.22;;
38715;SDS011;24833;49.324;8.694;2022-07-23T03:36:18;3.72;;;3.40;;
38715;SDS011;24833;49.324;8.694;2022-07-23T03:38:48;4.28;;;3.90;;
38715;SDS011;24833;49.324;8.694;2022-07-23T03:41:15;3.90;;;3.45;;
38715;SDS011;24833;49.324;8.694;2022-07-23T03:43:43;3.67;;;3.20;;
38715;SDS011;24833;49.324;8.694;2022-07-23T03:46:11;4.43;;;4.03;;
38715;SDS011;24833;49.324;8.694;2022-07-23T03:48:38;4.45;;;3.33;;
38715;SDS011;24833;49.324;8.694;2022-07-23T03:51:05;3.90;;;3.50;;
38715;SDS011;24833;49.324;8.694;2022-07-23T03:53:32;4.50;;;3.75;;
38715;SDS011;24833;49.324;8.694;2022-07-23T03:56:00;3.67;;;3.38;;
38715;SDS011;24833;49.324;8.694;2022-07-23T03:58:29;4.85;;;3.78;;
38715;SDS011;24833;49.324;8.694;2022-07-23T04:00:56;3.90;;;3.45;;
38715;SDS011;24833;49.324;8.694;2022-07-23T04:03:23;5.80;;;3.58;;
38715;SDS011;24833;49.324;8.694;2022-07-23T04:05:50;4.45;;;3.72;;
38715;SDS011;24833;49.324;8.694;2022-07-23T04:08:17;4.28;;;3.75;;
38715;SDS011;24833;49.324;8.694;2022-07-23T04:10:49;5.75;;;3.60;;
38715;SDS011;24833;49.324;8.694;2022-07-23T04:13:16;3.72;;;3.40;;
38715;SDS011;24833;49.324;8.694;2022-07-23T04:15:43;6.18;;;3.63;;
38715;SDS011;24833;49.324;8.694;2022-07-23T04:18:10;4.93;;;3.85;;
38715;SDS011;24833;49.324;8.694;2022-07-23T04:20:47;4.63;;;3.22;;
38715;SDS011;24833;49.324;8.694;2022-07-23T04:23:15;4.30;;;3.70;;
38715;SDS011;24833;49.324;8.694;2022-07-23T04:25:42;4.47;;;3.78;;
38715;SDS011;24833;49.324;8.694;2022-07-23T04:28:09;7.10;;;3.95;;
38715;SDS011;24833;49.324;8.694;2022-07-23T04:30:36;4.13;;;3.78;;
38715;SDS011;24833;49.324;8.694;2022-07-23T04:33:05;4.55;;;4.07;;
38715;SDS011;24833;49.324;8.694;2022-07-23T04:35:35;5.00;;;4.53;;
38715;SDS011;24833;49.324;8.694;2022-07-23T04:38:11;5.05;;;3.78;;
38715;SDS011;24833;49.324;8.694;2022-07-23T04:40:39;4.55;;;3.85;;
38715;SDS011;24833;49.324;8.694;2022-07-23T04:43:06;4.72;;;4.15;;
38715;SDS011;24833;49.324;8.694;2022-07-23T04:45:40;4.50;;;3.75;;
38715;SDS011;24833;49.324;8.694;2022-07-23T04:48:09;4.43;;;3.58;;
38715;SDS011;24833;49.324;8.694;2022-07-23T04:50:36;3.88;;;3.47;;
38715;SDS011;24833;49.324;8.694;2022-07-23T04:53:04;4.15;;;3.75;;
38715;SDS011;24833;49.324;8.694;2022-07-23T04:55:32;5.18;;;3.85;;
38715;SDS011;24833;49.324;8.694;2022-07-23T04:57:59;4.25;;;3.67;;
38715;SDS011;24833;49.324;8.694;2022-07-23T05:00:26;5.18;;;4.25;;
38715;SDS011;24833;49.324;8.694;2022-07-23T05:02:53;3.95;;;3.55;;
38715;SDS011;24833;49.324;8.694;2022-07-23T05:05:20;3.95;;;3.55;;
38715;SDS011;24833;49.324;8.694;2022-07-23T05:07:49;7.10;;;4.10;;
38715;SDS011;24833;49.324;8.694;2022-07-23T05:10:16;6.32;;;4.35;;
38715;SDS011;24833;49.324;8.694;2022-07-23T05:12:43;5.00;;;3.92;;
38715;SDS011;24833;49.324;8.694;2022-07-23T05:15:10;5.40;;;4.47;;
38715;SDS011;24833;49.324;8.694;2022-07-23T05:17:37;3.92;;;3.63;;
38715;SDS011;24833;49.324;8.694;2022-07-23T05:20:11;6.72;;;4.10;;
38715;SDS011;24833;49.324;8.694;2022-07-23T05:22:38;5.10;;;3.83;;
38715;SDS011;24833;49.324;8.694;2022-07-23T05:25:06;5.13;;;4.00;;
38715;SDS011;24833;49.324;8.694;2022-07-23T05:27:34;4.57;;;3.58;;
38715;SDS011;24833;49.324;8.694;2022-07-23T05:30:01;4.13;;;3.75;;
38715;SDS011;24833;49.324;8.694;2022-07-23T05:32:32;5.63;;;4.28;;
38715;SDS011;24833;49.324;8.694;2022-07-23T05:35:09;4.65;;;3.92;;
38715;SDS011;24833;49.324;8.694;2022-07-23T05:37:39;7.28;;;4.22;;
38715;SDS011;24833;49.324;8.694;2022-07-23T05:40:08;6.03;;;4.03;;
38715;SDS011;24833;49.324;8.694;2022-07-23T05:42:37;4.57;;;3.55;;
38715;SDS011;24833;49.324;8.694;2022-07-23T05:45:06;6.17;;;4.93;;
38715;SDS011;24833;49.324;8.694;2022-07-23T05:47:44;5.30;;;4.70;;
38715;SDS011;24833;49.324;8.694;2022-07-23T05:50:20;6.82;;;5.18;;
38715;SDS011;24833;49.324;8.694;2022-07-23T05:52:52;4.43;;;3.90;;
38715;SDS011;24833;49.324;8.694;2022-07-23T05:55:33;5.55;;;4.95;;
38715;SDS011;24833;49.324;8.694;2022-07-23T05:58:00;5.45;;;4.68;;
38715;SDS011;24833;49.324;8.694;2022-07-23T06:00:28;5.05;;;4.15;;
38715;SDS011;24833;49.324;8.694;2022-07-23T06:02:55;4.70;;;3.97;;
38715;SDS011;24833;49.324;8.694;2022-07-23T06:05:25;5.18;;;3.95;;
38715;SDS011;24833;49.324;8.694;2022-07-23T06:07:54;7.60;;;5.90;;
38715;SDS011;24833;49.324;8.694;2022-07-23T06:10:22;9.98;;;6.15;;
38715;SDS011;24833;49.324;8.694;2022-07-23T06:12:50;9.27;;;5.70;;
38715;SDS011;24833;49.324;8.694;2022-07-23T06:15:17;5.75;;;5.15;;
38715;SDS011;24833;49.324;8.694;2022-07-23T06:17:45;4.45;;;3.95;;
38715;SDS011;24833;49.324;8.694;2022-07-23T06:20:12;5.15;;;4.70;;
38715;SDS011;24833;49.324;8.694;2022-07-23T06:22:40;7.57;;;4.72;;
38715;SDS011;24833;49.324;8.694;2022-07-23T06:25:08;5.93;;;5.38;;
38715;SDS011;24833;49.324;8.694;2022-07-23T06:27:45;6.65;;;5.93;;
38715;SDS011;24833;49.324;8.694;2022-07-23T06:30:13;5.72;;;5.15;;
38715;SDS011;24833;49.324;8.694;2022-07-23T06:32:44;5.65;;;5.07;;
38715;SDS011;24833;49.324;8.694;2022-07-23T06:35:13;8.23;;;6.00;;
38715;SDS011;24833;49.324;8.694;2022-07-23T06:37:41;6.68;;;5.53;;
38715;SDS011;24833;49.324;8.694;2022-07-23T06:40:09;5.63;;;4.30;;
38715;SDS011;24833;49.324;8.694;2022-07-23T06:42:36;4.78;;;4.35;;
38715;SDS011;24833;49.324;8.694;2022-07-23T06:45:06;6.38;;;5.47;;
38715;SDS011;24833;49.324;8.694;2022-07-23T06:47:35;6.38;;;5.20;;
38715;SDS011;24833;49.324;8.694;2022-07-23T06:50:03;4.55;;;4.22;;
38715;SDS011;24833;49.324;8.694;2022-07-23T06:52:30;8.25;;;6.82;;
38715;SDS011;24833;49.324;8.694;2022-07-23T06:54:57;9.02;;;8.13;;
38715;SDS011;24833;49.324;8.694;2022-07-23T06:57:25;7.88;;;7.07;;
38715;SDS011;24833;49.324;8.694;2022-07-23T06:59:52;8.02;;;6.57;;
38715;SDS011;24833;49.324;8.694;2022-07-23T07:02:21;7.38;;;5.53;;
38715;SDS011;24833;49.324;8.694;2022-07-23T07:04:49;6.88;;;5.32;;
38715;SDS011;24833;49.324;8.694;2022-07-23T07:07:16;7.72;;;6.95;;
38715;SDS011;24833;49.324;8.694;2022-07-23T07:09:43;10.40;;;6.20;;
38715;SDS011;24833;49.324;8.694;2022-07-23T07:12:13;8.13;;;6.85;;
38715;SDS011;24833;49.324;8.694;2022-07-23T07:14:40;8.10;;;7.30;;
38715;SDS011;24833;49.324;8.694;2022-07-23T07:17:07;9.27;;;7.85;;
38715;SDS011;24833;49.324;8.694;2022-07-23T07:19:36;9.90;;;8.35;;
38715;SDS011;24833;49.324;8.694;2022-07-23T07:22:03;7.07;;;6.38;;
38715;SDS011;24833;49.324;8.694;2022-07-23T07:24:30;7.43;;;6.30;;
38715;SDS011;24833;49.324;8.694;2022-07-23T07:27:03;7.25;;;6.55;;
38715;SDS011;24833;49.324;8.694;2022-07-23T07:29:31;8.43;;;5.97;;
38715;SDS011;24833;49.324;8.694;2022-07-23T07:31:59;7.95;;;5.30;;
38715;SDS011;24833;49.324;8.694;2022-07-23T07:34:27;7.15;;;6.03;;
38715;SDS011;24833;49.324;8.694;2022-07-23T07:36:55;7.80;;;6.10;;
38715;SDS011;24833;49.324;8.694;2022-07-23T07:39:23;8.55;;;6.53;;
38715;SDS011;24833;49.324;8.694;2022-07-23T07:41:50;5.80;;;5.20;;
38715;SDS011;24833;49.324;8.694;2022-07-23T07:44:18;6.43;;;5.65;;
38715;SDS011;24833;49.324;8.694;2022-07-23T07:46:46;6.40;;;5.70;;
38715;SDS011;24833;49.324;8.694;2022-07-23T07:49:14;6.28;;;5.13;;
38715;SDS011;24833;49.324;8.694;2022-07-23T07:51:47;12.63;;;7.95;;
38715;SDS011;24833;49.324;8.694;2022-07-23T07:54:15;7.72;;;6.60;;
38715;SDS011;24833;49.324;8.694;2022-07-23T07:56:43;6.80;;;6.10;;
38715;SDS011;24833;49.324;8.694;2022-07-23T07:59:10;7.57;;;6.88;;
38715;SDS011;24833;49.324;8.694;2022-07-23T08:01:38;8.05;;;6.78;;
38715;SDS011;24833;49.324;8.694;2022-07-23T08:04:06;8.27;;;5.55;;
38715;SDS011;24833;49.324;8.694;2022-07-23T08:06:34;11.20;;;6.38;;
38715;SDS011;24833;49.324;8.694;2022-07-23T08:09:02;7.75;;;6.70;;
38715;SDS011;24833;49.324;8.694;2022-07-23T08:11:29;7.50;;;5.93;;
38715;SDS011;24833;49.324;8.694;2022-07-23T08:13:56;7.10;;;6.20;;
38715;SDS011;24833;49.324;8.694;2022-07-23T08:16:23;6.78;;;5.68;;
38715;SDS011;24833;49.324;8.694;2022-07-23T08:18:50;6.63;;;5.93;;
38715;SDS011;24833;49.324;8.694;2022-07-23T08:21:17;5.53;;;5.03;;
38715;SDS011;24833;49.324;8.694;2022-07-23T08:23:44;5.20;;;4.68;;
38715;SDS011;24833;49.324;8.694;2022-07-23T08:26:11;6.35;;;5.45;;
38715;SDS011;24833;49.324;8.694;2022-07-23T08:28:38;8.10;;;5.90;;
38715;SDS011;24833;49.324;8.694;2022-07-23T08:31:06;7.38;;;6.38;;
38715;SDS011;24833;49.324;8.694;2022-07-23T08:33:33;7.63;;;5.20;;
38715;SDS011;24833;49.324;8.694;2022-07-23T08:36:01;9.52;;;5.78;;
38715;SDS011;24833;49.324;8.694;2022-07-23T08:40:58;6.55;;;4.85;;
38715;SDS011;24833;49.324;8.694;2022-07-23T08:43:30;6.68;;;6.00;;
38715;SDS011;24833;49.324;8.694;2022-07-23T08:45:59;10.23;;;6.13;;
38715;SDS011;24833;49.324;8.694;2022-07-23T08:48:28;6.45;;;5.78;;
38715;SDS011;24833;49.324;8.694;2022-07-23T08:50:59;8.57;;;6.00;;
38715;SDS011;24833;49.324;8.694;2022-07-23T08:55:57;5.85;;;5.00;;
38715;SDS011;24833;49.324;8.694;2022-07-23T08:58:30;10.75;;;5.50;;
38715;SDS011;24833;49.324;8.694;2022-07-23T09:00:58;7.40;;;5.80;;
38715;SDS011;24833;49.324;8.694;2022-07-23T09:03:27;6.60;;;5.93;;
38715;SDS011;24833;49.324;8.694;2022-07-23T09:05:58;7.57;;;5.40;;
38715;SDS011;24833;49.324;8.694;2022-07-23T09:11:11;6.65;;;5.10;;
38715;SDS011;24833;49.324;8.694;2022-07-23T09:16:24;9.95;;;6.65;;
38715;SDS011;24833;49.324;8.694;2022-07-23T09:18:57;6.85;;;6.07;;
38715;SDS011;24833;49.324;8.694;2022-07-23T09:21:34;8.50;;;7.30;;
38715;SDS011;24833;49.324;8.694;2022-07-23T09:24:13;7.75;;;6.40;;
38715;SDS011;24833;49.324;8.694;2022-07-23T09:26:46;7.10;;;5.88;;
38715;SDS011;24833;49.324;8.694;2022-07-23T09:29:25;8.43;;;6.15;;
38715;SDS011;24833;49.324;8.694;2022-07-23T09:31:53;9.73;;;7.65;;
38715;SDS011;24833;49.324;8.694;2022-07-23T09:36:57;7.25;;;6.10;;
38715;SDS011;24833;49.324;8.694;2022-07-23T09:39:36;7.32;;;6.25;;
38715;SDS011;24833;49.324;8.694;2022-07-23T09:42:17;6.95;;;6.25;;
38715;SDS011;24833;49.324;8.694;2022-07-23T09:44:52;8.80;;;5.38;;
38715;SDS011;24833;49.324;8.694;2022-07-23T09:47:23;5.78;;;5.25;;
38715;SDS011;24833;49.324;8.694;2022-07-23T09:50:04;8.73;;;7.60;;
38715;SDS011;24833;49.324;8.694;2022-07-23T09:52:47;8.05;;;5.88;;
38715;SDS011;24833;49.324;8.694;2022-07-23T09:55:17;6.25;;;5.65;;
38715;SDS011;24833;49.324;8.694;2022-07-23T09:57:45;6.13;;;5.35;;
38715;SDS011;24833;49.324;8.694;2022-07-23T10:00:16;6.28;;;5.60;;
38715;SDS011;24833;49.324;8.694;2022-07-23T10:02:45;6.32;;;5.72;;
38715;SDS011;24833;49.324;8.694;2022-07-23T10:05:28;6.82;;;5.65;;
38715;SDS011;24833;49.324;8.694;2022-07-23T10:08:17;6.85;;;6.15;;
38715;SDS011;24833;49.324;8.694;2022-07-23T10:11:04;6.43;;;5.82;;
38715;SDS011;24833;49.324;8.694;2022-07-23T10:13:46;6.65;;;5.13;;
38715;SDS011;24833;49.324;8.694;2022-07-23T10:16:18;5.38;;;4.88;;
38715;SDS011;24833;49.324;8.694;2022-07-23T10:18:52;7.43;;;5.55;;
38715;SDS011;24833;49.324;8.694;2022-07-23T10:21:25;7.03;;;5.93;;
38715;SDS011;24833;49.324;8.694;2022-07-23T10:30:38;6.72;;;5.32;;
38715;SDS011;24833;49.324;8.694;2022-07-23T10:36:40;6.53;;;4.95;;
38715;SDS011;24833;49.324;8.694;2022-07-23T10:39:47;6.70;;;5.13;;
38715;SDS011;24833;49.324;8.694;2022-07-23T10:42:15;5.95;;;4.75;;
38715;SDS011;24833;49.324;8.694;2022-07-23T10:44:43;6.22;;;5.00;;
38715;SDS011;24833;49.324;8.694;2022-07-23T10:47:36;5.65;;;4.90;;
38715;SDS011;24833;49.324;8.694;2022-07-23T10:50:19;5.07;;;4.57;;
38715;SDS011;24833;49.324;8.694;2022-07-23T10:58:03;8.43;;;5.40;;
38715;SDS011;24833;49.324;8.694;2022-07-23T11:00:33;6.13;;;5.03;;
38715;SDS011;24833;49.324;8.694;2022-07-23T11:03:06;6.80;;;6.10;;
38715;SDS011;24833;49.324;8.694;2022-07-23T11:05:58;6.10;;;5.03;;
38715;SDS011;24833;49.324;8.694;2022-07-23T11:08:25;6.28;;;5.15;;
38715;SDS011;24833;49.324;8.694;2022-07-23T11:10:54;7.25;;;5.60;;
38715;SDS011;24833;49.324;8.694;2022-07-23T11:13:41;6.25;;;5.22;;
38715;SDS011;24833;49.324;8.694;2022-07-23T11:27:05;4.90;;;4.43;;
38715;SDS011;24833;49.324;8.694;2022-07-23T11:31:57;4.85;;;3.83;;
38715;SDS011;24833;49.324;8.694;2022-07-23T11:34:34;5.95;;;4.00;;
38715;SDS011;24833;49.324;8.694;2022-07-23T11:37:05;4.70;;;4.30;;
38715;SDS011;24833;49.324;8.694;2022-07-23T11:39:37;4.68;;;4.18;;
38715;SDS011;24833;49.324;8.694;2022-07-23T11:42:06;6.47;;;4.55;;
38715;SDS011;24833;49.324;8.694;2022-07-23T11:44:34;5.57;;;5.05;;
38715;SDS011;24833;49.324;8.694;2022-07-23T11:47:06;5.32;;;4.60;;
38715;SDS011;24833;49.324;8.694;2022-07-23T11:49:38;6.55;;;4.30;;
38715;SDS011;24833;49.324;8.694;2022-07-23T11:52:17;7.07;;;4.90;;
38715;SDS011;24833;49.324;8.694;2022-07-23T11:57:24;6.53;;;4.93;;
38715;SDS011;24833;49.324;8.694;2022-07-23T11:59:56;6.75;;;5.63;;
38715;SDS011;24833;49.324;8.694;2022-07-23T12:02:43;6.82;;;5.63;;
38715;SDS011;24833;49.324;8.694;2022-07-23T12:05:13;5.30;;;4.70;;
38715;SDS011;24833;49.324;8.694;2022-07-23T12:07:44;5.10;;;4.60;;
38715;SDS011;24833;49.324;8.694;2022-07-23T12:12:54;5.55;;;4.63;;
38715;SDS011;24833;49.324;8.694;2022-07-23T12:15:46;5.68;;;4.75;;
38715;SDS011;24833;49.324;8.694;2022-07-23T12:18:20;5.90;;;4.78;;
38715;SDS011;24833;49.324;8.694;2022-07-23T12:20:53;6.30;;;5.22;;
38715;SDS011;24833;49.324;8.694;2022-07-23T12:23:23;5.90;;;4.88;;
38715;SDS011;24833;49.324;8.694;2022-07-23T12:25:52;6.40;;;5.22;;
38715;SDS011;24833;49.324;8.694;2022-07-23T12:28:21;5.05;;;4.55;;
38715;SDS011;24833;49.324;8.694;2022-07-23T12:30:55;6.57;;;5.82;;
38715;SDS011;24833;49.324;8.694;2022-07-23T12:33:25;6.67;;;4.50;;
38715;SDS011;24833;49.324;8.694;2022-07-23T12:36:02;5.93;;;5.25;;
38715;SDS011;24833;49.324;8.694;2022-07-23T12:38:37;8.68;;;5.10;;
38715;SDS011;24833;49.324;8.694;2022-07-23T12:41:07;7.88;;;4.88;;
38715;SDS011;24833;49.324;8.694;2022-07-23T12:43:37;11.68;;;4.47;;
38715;SDS011;24833;49.324;8.694;2022-07-23T12:46:08;4.47;;;4.07;;
38715;SDS011;24833;49.324;8.694;2022-07-23T12:51:18;5.20;;;4.30;;
38715;SDS011;24833;49.324;8.694;2022-07-23T12:53:55;6.72;;;4.72;;
38715;SDS011;24833;49.324;8.694;2022-07-23T12:56:28;4.78;;;4.18;;
38715;SDS011;24833;49.324;8.694;2022-07-23T12:58:58;5.00;;;3.92;;
38715;SDS011;24833;49.324;8.694;2022-07-23T13:01:44;4.63;;;4.15;;
38715;SDS011;24833;49.324;8.694;2022-07-23T13:04:25;4.03;;;3.72;;
38715;SDS011;24833;49.324;8.694;2022-07-23T13:06:54;6.68;;;4.68;;
38715;SDS011;24833;49.324;8.694;2022-07-23T13:09:26;5.35;;;4.05;;
38715;SDS011;24833;49.324;8.694;2022-07-23T13:11:58;4.25;;;3.70;;
38715;SDS011;24833;49.324;8.694;2022-07-23T13:14:27;6.57;;;4.18;;
38715;SDS011;24833;49.324;8.694;2022-07-23T13:16:54;7.63;;;4.20;;
38715;SDS011;24833;49.324;8.694;2022-07-23T13:19:25;4.72;;;4.30;;
38715;SDS011;24833;49.324;8.694;2022-07-23T13:21:53;5.25;;;4.30;;
38715;SDS011;24833;49.324;8.694;2022-07-23T13:24:21;4.78;;;4.32;;
38715;SDS011;24833;49.324;8.694;2022-07-23T13:26:49;8.05;;;4.85;;
38715;SDS011;24833;49.324;8.694;2022-07-23T13:29:17;4.85;;;4.35;;
38715;SDS011;24833;49.324;8.694;2022-07-23T13:31:45;4.93;;;4.43;;
38715;SDS011;24833;49.324;8.694;2022-07-23T13:34:14;5.82;;;4.35;;
38715;SDS011;24833;49.324;8.694;2022-07-23T13:36:41;5.80;;;5.20;;
38715;SDS011;24833;49.324;8.694;2022-07-23T13:39:09;6.80;;;4.85;;
38715;SDS011;24833;49.324;8.694;2022-07-23T13:41:40;4.60;;;3.88;;
38715;SDS011;24833;49.324;8.694;2022-07-23T13:44:16;4.53;;;4.13;;
38715;SDS011;24833;49.324;8.694;2022-07-23T13:46:47;8.20;;;3.88;;
38715;SDS011;24833;49.324;8.694;2022-07-23T13:49:15;3.97;;;3.55;;
38715;SDS011;24833;49.324;8.694;2022-07-23T13:51:42;4.82;;;3.95;;
38715;SDS011;24833;49.324;8.694;2022-07-23T13:54:10;4.47;;;4.10;;
38715;SDS011;24833;49.324;8.694;2022-07-23T13:56:37;5.05;;;4.13;;
38715;SDS011;24833;49.324;8.694;2022-07-23T13:59:04;4.60;;;4.20;;
38715;SDS011;24833;49.324;8.694;2022-07-23T14:01:32;5.20;;;4.40;;
38715;SDS011;24833;49.324;8.694;2022-07-23T14:04:20;5.35;;;4.00;;
38715;SDS011;24833;49.324;8.694;2022-07-23T14:06:48;7.50;;;4.10;;
38715;SDS011;24833;49.324;8.694;2022-07-23T14:09:20;5.28;;;4.70;;
38715;SDS011;24833;49.324;8.694;2022-07-23T14:11:51;5.47;;;4.40;;
38715;SDS011;24833;49.324;8.694;2022-07-23T14:14:18;4.45;;;3.92;;
38715;SDS011;24833;49.324;8.694;2022-07-23T14:16:45;4.13;;;3.78;;
38715;SDS011;24833;49.324;8.694;2022-07-23T14:19:13;4.57;;;4.03;;
38715;SDS011;24833;49.324;8.694;2022-07-23T14:21:40;5.75;;;4.40;;
38715;SDS011;24833;49.324;8.694;2022-07-23T14:24:07;3.92;;;3.60;;
38715;SDS011;24833;49.324;8.694;2022-07-23T14:26:34;4.50;;;4.10;;
38715;SDS011;24833;49.324;8.694;2022-07-23T14:29:01;5.05;;;4.25;;
38715;SDS011;24833;49.324;8.694;2022-07-23T14:31:30;6.45;;;4.28;;
38715;SDS011;24833;49.324;8.694;2022-07-23T14:33:57;4.95;;;3.88;;
38715;SDS011;24833;49.324;8.694;2022-07-23T14:36:25;4.93;;;4.43;;
38715;SDS011;24833;49.324;8.694;2022-07-23T14:38:53;4.22;;;3.83;;
38715;SDS011;24833;49.324;8.694;2022-07-23T14:41:22;4.65;;;4.18;;
38715;SDS011;24833;49.324;8.694;2022-07-23T14:43:53;6.55;;;4.85;;
38715;SDS011;24833;49.324;8.694;2022-07-23T14:46:22;4.15;;;3.80;;
38715;SDS011;24833;49.324;8.694;2022-07-23T14:48:49;4.13;;;3.72;;
38715;SDS011;24833;49.324;8.694;2022-07-23T14:51:16;7.10;;;4.22;;
38715;SDS011;24833;49.324;8.694;2022-07-23T14:53:44;7.15;;;5.13;;
38715;SDS011;24833;49.324;8.694;2022-07-23T14:56:11;4.88;;;4.20;;
38715;SDS011;24833;49.324;8.694;2022-07-23T14:58:40;5.07;;;4.57;;
38715;SDS011;24833;49.324;8.694;2022-07-23T15:01:08;4.75;;;4.28;;
38715;SDS011;24833;49.324;8.694;2022-07-23T15:03:35;6.07;;;4.47;;
38715;SDS011;24833;49.324;8.694;2022-07-23T15:06:08;5.47;;;4.35;;
38715;SDS011;24833;49.324;8.694;2022-07-23T15:08:37;6.30;;;4.18;;
38715;SDS011;24833;49.324;8.694;2022-07-23T15:11:05;6.35;;;4.53;;
38715;SDS011;24833;49.324;8.694;2022-07-23T15:13:36;4.85;;;4.28;;
38715;SDS011;24833;49.324;8.694;2022-07-23T15:16:05;4.80;;;4.25;;
38715;SDS011;24833;49.324;8.694;2022-07-23T15:18:36;6.13;;;4.32;;
38715;SDS011;24833;49.324;8.694;2022-07-23T15:21:03;4.32;;;3.92;;
38715;SDS011;24833;49.324;8.694;2022-07-23T15:23:30;5.20;;;4.32;;
38715;SDS011;24833;49.324;8.694;2022-07-23T15:25:58;7.28;;;5.18;;
38715;SDS011;24833;49.324;8.694;2022-07-23T15:28:26;5.55;;;4.95;;
38715;SDS011;24833;49.324;8.694;2022-07-23T15:30:53;4.13;;;3.80;;
38715;SDS011;24833;49.324;8.694;2022-07-23T15:33:20;6.07;;;4.40;;
38715;SDS011;24833;49.324;8.694;2022-07-23T15:35:48;4.65;;;4.03;;
38715;SDS011;24833;49.324;8.694;2022-07-23T15:38:15;4.80;;;4.07;;
38715;SDS011;24833;49.324;8.694;2022-07-23T15:40:54;6.13;;;4.13;;
38715;SDS011;24833;49.324;8.694;2022-07-23T15:43:23;5.25;;;4.45;;
38715;SDS011;24833;49.324;8.694;2022-07-23T15:45:51;4.55;;;4.15;;
38715;SDS011;24833;49.324;8.694;2022-07-23T15:48:20;4.75;;;4.35;;
38715;SDS011;24833;49.324;8.694;2022-07-23T15:50:48;4.18;;;3.78;;
38715;SDS011;24833;49.324;8.694;2022-07-23T15:53:15;5.10;;;4.60;;